Avon, Illinois
Current Conditions -  °F | °C
As of 4:35 PM on Monday 20 Oct 2014 (Local Time) from KMQB Reporting Station
Clear Clear  
Wind Chill: 20°   Ceiling: Unl
Heat Index: 20°   Visibility: 10mi
Dew Point:   Wind: 14mph
Humidity: 42%   Direction: 320°NW
Pressure: 29.97"   Gusts: 22mph
Location:  40.66°N, 90.43°W
Report Text: KMQB 202135Z AUTO 32012G19KT 10SM CLR 20/06 A2997 RMK AO2 T01950063
Loading
Personal Weather Stations






























Interactive Weather Map
Tropical Storm Tracking
New forecast layout! Learn more

10-Day Weather Forecast

Advertisements
Track Severe Weather on mobile